Mississippi Star — 9HA2441 — position and weather

sailwx.info

Track history (hours):
 
Tides and Currents Weather Stations Pressure Air Temp Water Temp Dewpoint Dewpoint Depression Visibility Wind Speed Wind Dir Waves Ship Positions

Mississippi Star

Last reported at 2015-Mar-03 14:33 UTC. Time now 2015-Mar-03 15:09 UTC.
Position N 55°29' W 006°32'.

Length 128 m; draft 8.1 m.

Type: Ship. MMSI: 248621000.

Date/timePositionNaut miles runAvg speedWind from/ knotsBaromVisibWave heightAir tempDewpointWater temp
2015-Mar-03 14:33N 55°29' W 006°32'9 9.0
2015-Mar-03 13:33N 55°35' W 006°44'8 7.6
2015-Mar-03 12:33N 55°40' W 006°53'9 8.6
2015-Mar-03 11:33N 55°46' W 007°03'150 8.8
2015-Mar-02 18:33N 58°11' W 005°57'1010.2
2015-Mar-02 17:33N 58°19' W 005°45'1010.5
2015-Mar-02 16:33N 58°28' W 005°32'35 8.8
2015-Mar-02 12:33N 58°44' W 004°32'1010.4
2015-Mar-02 11:33N 58°44' W 004°12'10 9.8
2015-Mar-02 10:33N 58°43' W 003°54'1010.0
2015-Mar-02 09:33N 58°43' W 003°34'9 8.9
2015-Mar-02 08:32N 58°44' W 003°17'7 6.7
2015-Mar-02 07:33N 58°42' W 003°04'7 7.3
2015-Mar-02 06:33N 58°37' W 002°54'9 9.2
2015-Mar-02 05:33N 58°33' W 002°39'406 8.4
2015-Feb-28 05:06N 57°52' E 010°08'610.4
2015-Feb-28 04:33N 57°53' E 010°19'1010.4
2015-Feb-28 03:33N 57°52' E 010°38'1110.5
2015-Feb-28 02:33N 57°51' E 010°58'1111.2
2015-Feb-28 01:33N 57°43' E 011°12'1110.9
2015-Feb-28 00:33N 57°37' E 011°29'1010.4
2015-Feb-27 23:33N 57°40' E 011°48'2 2.4
2015-Feb-27 22:31N 57°41' E 011°52'0 0.0
2015-Feb-27 21:31N 57°41' E 011°52'0 0.0
2015-Feb-27 20:31N 57°41' E 011°52'0 0.0
2015-Feb-27 19:31N 57°41' E 011°52'0 0.0
2015-Feb-27 18:31N 57°41' E 011°52'0 0.0
2015-Feb-27 17:31N 57°41' E 011°52'0 0.0
2015-Feb-27 16:31N 57°41' E 011°52'0 0.0
2015-Feb-27 15:31N 57°41' E 011°52'0 0.0
2015-Feb-27 14:28N 57°41' E 011°52'0 0.0
2015-Feb-27 13:31N 57°41' E 011°52'0 0.0
2015-Feb-27 12:31N 57°41' E 011°52'0 0.0
2015-Feb-27 11:31N 57°41' E 011°52'0 0.0
2015-Feb-27 10:31N 57°41' E 011°52'0 0.0
2015-Feb-27 09:31N 57°41' E 011°52'0 0.0
2015-Feb-27 08:31N 57°41' E 011°52'0 0.0
2015-Feb-27 07:31N 57°41' E 011°52'0 0.0
2015-Feb-27 06:31N 57°41' E 011°52'0 0.0
2015-Feb-27 05:31N 57°41' E 011°52'0 0.0
2015-Feb-27 04:31N 57°41' E 011°52'0 0.0
2015-Feb-27 03:31N 57°41' E 011°52'0 0.0
2015-Feb-27 02:31N 57°41' E 011°52'0 0.0
2015-Feb-27 01:31N 57°41' E 011°52'0 0.0
2015-Feb-27 00:31N 57°41' E 011°52'0 0.0
2015-Feb-26 23:31N 57°41' E 011°52'0 0.0
2015-Feb-26 22:31N 57°41' E 011°52'0 0.0
2015-Feb-26 21:31N 57°41' E 011°52'0 0.0
2015-Feb-26 20:31N 57°41' E 011°52'0 0.0
2015-Feb-26 19:28N 57°41' E 011°52'0 0.0
2015-Feb-26 18:31N 57°41' E 011°52'0 0.0
2015-Feb-26 17:31N 57°41' E 011°52'0 0.0
2015-Feb-26 16:31N 57°41' E 011°52'0 0.0
2015-Feb-26 15:31N 57°41' E 011°52'0 0.0
2015-Feb-26 14:31N 57°41' E 011°52'0 0.0
2015-Feb-26 13:31N 57°41' E 011°52'0 0.0
2015-Feb-26 12:31N 57°41' E 011°52'0 0.0
2015-Feb-26 11:31N 57°41' E 011°52'0 0.0
2015-Feb-26 10:31N 57°41' E 011°52'0 0.0
2015-Feb-26 09:31N 57°41' E 011°52'0 0.0
2015-Feb-26 08:31N 57°41' E 011°52'3 3.4
2015-Feb-26 07:33N 57°40' E 011°47'8 7.3
2015-Feb-26 06:31N 57°34' E 011°38'0 0.0
2015-Feb-26 05:31N 57°34' E 011°38'0 0.0
2015-Feb-26 04:31N 57°34' E 011°38'0 0.0
2015-Feb-26 03:31N 57°34' E 011°38'0 0.0
2015-Feb-26 02:31N 57°34' E 011°38'0 0.0
2015-Feb-26 01:31N 57°34' E 011°38'0 0.0
2015-Feb-26 00:31N 57°34' E 011°38'0 0.0
2015-Feb-25 23:31N 57°34' E 011°38'0 0.0
2015-Feb-25 22:31N 57°34' E 011°38'0 0.0
2015-Feb-25 21:31N 57°34' E 011°38'0 0.0
2015-Feb-25 20:31N 57°34' E 011°38'0 0.0
2015-Feb-25 19:31N 57°34' E 011°38'0 0.0
2015-Feb-25 18:31N 57°34' E 011°38'0 0.0
2015-Feb-25 17:28N 57°34' E 011°38'0 0.0
2015-Feb-25 16:31N 57°34' E 011°38'0 0.0
2015-Feb-25 15:31N 57°34' E 011°38'0 0.0
2015-Feb-25 14:31N 57°34' E 011°38'0 0.2
2015-Feb-25 13:34N 57°34' E 011°38'1110.8
2015-Feb-25 12:33N 57°40' E 011°21'1110.8
2015-Feb-25 11:33N 57°47' E 011°05'10 9.7
2015-Feb-25 10:34N 57°52' E 010°50'1111.0
2015-Feb-25 09:33N 57°52' E 010°29'10112.4
2015-Feb-25 01:26N 56°52' E 007°58'18312.7
2015-Feb-24 11:04N 54°22' E 004°55'812.8
2015-Feb-24 10:29N 54°15' E 004°48'1112.2
2015-Feb-24 09:33N 54°05' E 004°39'13211.0
2015-Feb-23 21:32N 52°01' E 003°24'1212.3
2015-Feb-23 20:33N 51°49' E 003°19'1110.7
2015-Feb-23 19:32N 51°38' E 003°21'1413.9
2015-Feb-23 18:33N 51°27' E 003°33'10 9.9
2015-Feb-23 17:33N 51°22' E 003°46'9 9.5
2015-Feb-23 16:33N 51°26' E 003°60'7 7.3
2015-Feb-23 15:34N 51°24' E 004°11'5 5.1
2015-Feb-23 14:34N 51°21' E 004°17'0 0.4
2015-Feb-23 13:33N 51°21' E 004°18'2 2.3
2015-Feb-23 12:33N 51°19' E 004°19'4 3.3
2015-Feb-23 11:29N 51°15' E 004°22'0 0.0
2015-Feb-23 10:32N 51°15' E 004°22'0 0.0
2015-Feb-23 09:32N 51°15' E 004°22'0 0.0
2015-Feb-23 08:32N 51°15' E 004°22'0 0.0
2015-Feb-23 07:29N 51°15' E 004°22'0 0.0
2015-Feb-23 06:32N 51°15' E 004°22'0 0.0
2015-Feb-23 05:32N 51°15' E 004°22'0 0.0
2015-Feb-23 04:32N 51°15' E 004°22'0 0.0
2015-Feb-23 03:32N 51°15' E 004°22'0 0.0
2015-Feb-23 02:32N 51°15' E 004°22'0 0.0
2015-Feb-23 01:29N 51°15' E 004°22'0 0.0
2015-Feb-23 00:32N 51°15' E 004°22'0 0.0
2015-Feb-22 23:32N 51°15' E 004°22'0 0.0
2015-Feb-22 22:32N 51°15' E 004°22'0 0.0
2015-Feb-22 21:32N 51°15' E 004°22'0 0.0
2015-Feb-22 20:32N 51°15' E 004°22'0 0.0
2015-Feb-22 19:26N 51°15' E 004°22'0 0.0
2015-Feb-22 18:29N 51°15' E 004°22'0 0.0
2015-Feb-22 17:32N 51°15' E 004°22'0 0.0
2015-Feb-22 16:32N 51°15' E 004°22'0 0.0
2015-Feb-22 15:32N 51°15' E 004°22'0 0.0
2015-Feb-22 14:32N 51°15' E 004°22'0 0.0
2015-Feb-22 13:32N 51°15' E 004°22'0 0.0
2015-Feb-22 12:29N 51°15' E 004°22'0 0.0
2015-Feb-22 11:32N 51°15' E 004°22'0 0.0
2015-Feb-22 10:32N 51°15' E 004°22'0 0.0
2015-Feb-22 09:32N 51°15' E 004°22'0 0.0
2015-Feb-22 08:32N 51°15' E 004°22'0 0.0
2015-Feb-22 07:32N 51°15' E 004°22'0 0.0
2015-Feb-22 06:32N 51°15' E 004°22'0 0.0
2015-Feb-22 05:32N 51°15' E 004°22'0 0.0
2015-Feb-22 04:32N 51°15' E 004°22'0 0.0
2015-Feb-22 03:32N 51°15' E 004°22'0 0.0
2015-Feb-22 02:32N 51°15' E 004°22'0 0.3
2015-Feb-22 01:33N 51°16' E 004°21'6 5.8
2015-Feb-22 00:33N 51°21' E 004°17'0 0.0
2015-Feb-21 23:33N 51°21' E 004°17'5 4.9
2015-Feb-21 22:34N 51°24' E 004°11'8 7.7
2015-Feb-21 21:33N 51°26' E 003°59'9 8.8
2015-Feb-21 20:33N 51°21' E 003°48'8 8.3
2015-Feb-21 19:34N 51°26' E 003°38'8 7.7
2015-Feb-21 18:33N 51°30' E 003°27'1010.1
2015-Feb-21 17:33N 51°39' E 003°19'11 9.1
2015-Feb-21 16:22N 51°50' E 003°17'  
Track history (hours):
 
Tides and Currents Weather Stations Pressure Air Temp Water Temp Dewpoint Dewpoint Depression Visibility Wind Speed Wind Dir Waves Ship Positions

Mississippi Star

Last reported at 2015-Mar-03 14:33 UTC. Time now 2015-Mar-03 15:09 UTC.
Position N 55°29' W 006°32'.

Length 128 m; draft 8.1 m.

Type: Ship. MMSI: 248621000.

Date/timePositionNaut miles runAvg speedWind from/ knotsBaromVisibWave heightAir tempDewpointWater temp
2015-Mar-03 14:33N 55°29' W 006°32'9 9.0
2015-Mar-03 13:33N 55°35' W 006°44'8 7.6
2015-Mar-03 12:33N 55°40' W 006°53'9 8.6
2015-Mar-03 11:33N 55°46' W 007°03'150 8.8
2015-Mar-02 18:33N 58°11' W 005°57'1010.2
2015-Mar-02 17:33N 58°19' W 005°45'1010.5
2015-Mar-02 16:33N 58°28' W 005°32'35 8.8
2015-Mar-02 12:33N 58°44' W 004°32'1010.4
2015-Mar-02 11:33N 58°44' W 004°12'10 9.8
2015-Mar-02 10:33N 58°43' W 003°54'1010.0
2015-Mar-02 09:33N 58°43' W 003°34'9 8.9
2015-Mar-02 08:32N 58°44' W 003°17'7 6.7
2015-Mar-02 07:33N 58°42' W 003°04'7 7.3
2015-Mar-02 06:33N 58°37' W 002°54'9 9.2
2015-Mar-02 05:33N 58°33' W 002°39'406 8.4
2015-Feb-28 05:06N 57°52' E 010°08'610.4
2015-Feb-28 04:33N 57°53' E 010°19'1010.4
2015-Feb-28 03:33N 57°52' E 010°38'1110.5
2015-Feb-28 02:33N 57°51' E 010°58'1111.2
2015-Feb-28 01:33N 57°43' E 011°12'1110.9
2015-Feb-28 00:33N 57°37' E 011°29'1010.4
2015-Feb-27 23:33N 57°40' E 011°48'2 2.4
2015-Feb-27 22:31N 57°41' E 011°52'0 0.0
2015-Feb-27 21:31N 57°41' E 011°52'0 0.0
2015-Feb-27 20:31N 57°41' E 011°52'0 0.0
2015-Feb-27 19:31N 57°41' E 011°52'0 0.0
2015-Feb-27 18:31N 57°41' E 011°52'0 0.0
2015-Feb-27 17:31N 57°41' E 011°52'0 0.0
2015-Feb-27 16:31N 57°41' E 011°52'0 0.0
2015-Feb-27 15:31N 57°41' E 011°52'0 0.0
2015-Feb-27 14:28N 57°41' E 011°52'0 0.0
2015-Feb-27 13:31N 57°41' E 011°52'0 0.0
2015-Feb-27 12:31N 57°41' E 011°52'0 0.0
2015-Feb-27 11:31N 57°41' E 011°52'0 0.0
2015-Feb-27 10:31N 57°41' E 011°52'0 0.0
2015-Feb-27 09:31N 57°41' E 011°52'0 0.0
2015-Feb-27 08:31N 57°41' E 011°52'0 0.0
2015-Feb-27 07:31N 57°41' E 011°52'0 0.0
2015-Feb-27 06:31N 57°41' E 011°52'0 0.0
2015-Feb-27 05:31N 57°41' E 011°52'0 0.0
2015-Feb-27 04:31N 57°41' E 011°52'0 0.0
2015-Feb-27 03:31N 57°41' E 011°52'0 0.0
2015-Feb-27 02:31N 57°41' E 011°52'0 0.0
2015-Feb-27 01:31N 57°41' E 011°52'0 0.0
2015-Feb-27 00:31N 57°41' E 011°52'0 0.0
2015-Feb-26 23:31N 57°41' E 011°52'0 0.0
2015-Feb-26 22:31N 57°41' E 011°52'0 0.0
2015-Feb-26 21:31N 57°41' E 011°52'0 0.0
2015-Feb-26 20:31N 57°41' E 011°52'0 0.0
2015-Feb-26 19:28N 57°41' E 011°52'0 0.0
2015-Feb-26 18:31N 57°41' E 011°52'0 0.0
2015-Feb-26 17:31N 57°41' E 011°52'0 0.0
2015-Feb-26 16:31N 57°41' E 011°52'0 0.0
2015-Feb-26 15:31N 57°41' E 011°52'0 0.0
2015-Feb-26 14:31N 57°41' E 011°52'0 0.0
2015-Feb-26 13:31N 57°41' E 011°52'0 0.0
2015-Feb-26 12:31N 57°41' E 011°52'0 0.0
2015-Feb-26 11:31N 57°41' E 011°52'0 0.0
2015-Feb-26 10:31N 57°41' E 011°52'0 0.0
2015-Feb-26 09:31N 57°41' E 011°52'0 0.0
2015-Feb-26 08:31N 57°41' E 011°52'3 3.4
2015-Feb-26 07:33N 57°40' E 011°47'8 7.3
2015-Feb-26 06:31N 57°34' E 011°38'0 0.0
2015-Feb-26 05:31N 57°34' E 011°38'0 0.0
2015-Feb-26 04:31N 57°34' E 011°38'0 0.0
2015-Feb-26 03:31N 57°34' E 011°38'0 0.0
2015-Feb-26 02:31N 57°34' E 011°38'0 0.0
2015-Feb-26 01:31N 57°34' E 011°38'0 0.0
2015-Feb-26 00:31N 57°34' E 011°38'0 0.0
2015-Feb-25 23:31N 57°34' E 011°38'0 0.0
2015-Feb-25 22:31N 57°34' E 011°38'0 0.0
2015-Feb-25 21:31N 57°34' E 011°38'0 0.0
2015-Feb-25 20:31N 57°34' E 011°38'0 0.0
2015-Feb-25 19:31N 57°34' E 011°38'0 0.0
2015-Feb-25 18:31N 57°34' E 011°38'0 0.0
2015-Feb-25 17:28N 57°34' E 011°38'0 0.0
2015-Feb-25 16:31N 57°34' E 011°38'0 0.0
2015-Feb-25 15:31N 57°34' E 011°38'0 0.0
2015-Feb-25 14:31N 57°34' E 011°38'0 0.2
2015-Feb-25 13:34N 57°34' E 011°38'1110.8
2015-Feb-25 12:33N 57°40' E 011°21'1110.8
2015-Feb-25 11:33N 57°47' E 011°05'10 9.7
2015-Feb-25 10:34N 57°52' E 010°50'1111.0
2015-Feb-25 09:33N 57°52' E 010°29'10112.4
2015-Feb-25 01:26N 56°52' E 007°58'18312.7
2015-Feb-24 11:04N 54°22' E 004°55'812.8
2015-Feb-24 10:29N 54°15' E 004°48'1112.2
2015-Feb-24 09:33N 54°05' E 004°39'13211.0
2015-Feb-23 21:32N 52°01' E 003°24'1212.3
2015-Feb-23 20:33N 51°49' E 003°19'1110.7
2015-Feb-23 19:32N 51°38' E 003°21'1413.9
2015-Feb-23 18:33N 51°27' E 003°33'10 9.9
2015-Feb-23 17:33N 51°22' E 003°46'9 9.5
2015-Feb-23 16:33N 51°26' E 003°60'7 7.3
2015-Feb-23 15:34N 51°24' E 004°11'5 5.1
2015-Feb-23 14:34N 51°21' E 004°17'0 0.4
2015-Feb-23 13:33N 51°21' E 004°18'2 2.3
2015-Feb-23 12:33N 51°19' E 004°19'4 3.3
2015-Feb-23 11:29N 51°15' E 004°22'0 0.0
2015-Feb-23 10:32N 51°15' E 004°22'0 0.0
2015-Feb-23 09:32N 51°15' E 004°22'0 0.0
2015-Feb-23 08:32N 51°15' E 004°22'0 0.0
2015-Feb-23 07:29N 51°15' E 004°22'0 0.0
2015-Feb-23 06:32N 51°15' E 004°22'0 0.0
2015-Feb-23 05:32N 51°15' E 004°22'0 0.0
2015-Feb-23 04:32N 51°15' E 004°22'0 0.0
2015-Feb-23 03:32N 51°15' E 004°22'0 0.0
2015-Feb-23 02:32N 51°15' E 004°22'0 0.0
2015-Feb-23 01:29N 51°15' E 004°22'0 0.0
2015-Feb-23 00:32N 51°15' E 004°22'0 0.0
2015-Feb-22 23:32N 51°15' E 004°22'0 0.0
2015-Feb-22 22:32N 51°15' E 004°22'0 0.0
2015-Feb-22 21:32N 51°15' E 004°22'0 0.0
2015-Feb-22 20:32N 51°15' E 004°22'0 0.0
2015-Feb-22 19:26N 51°15' E 004°22'0 0.0
2015-Feb-22 18:29N 51°15' E 004°22'0 0.0
2015-Feb-22 17:32N 51°15' E 004°22'0 0.0
2015-Feb-22 16:32N 51°15' E 004°22'0 0.0
2015-Feb-22 15:32N 51°15' E 004°22'0 0.0
2015-Feb-22 14:32N 51°15' E 004°22'0 0.0
2015-Feb-22 13:32N 51°15' E 004°22'0 0.0
2015-Feb-22 12:29N 51°15' E 004°22'0 0.0
2015-Feb-22 11:32N 51°15' E 004°22'0 0.0
2015-Feb-22 10:32N 51°15' E 004°22'0 0.0
2015-Feb-22 09:32N 51°15' E 004°22'0 0.0
2015-Feb-22 08:32N 51°15' E 004°22'0 0.0
2015-Feb-22 07:32N 51°15' E 004°22'0 0.0
2015-Feb-22 06:32N 51°15' E 004°22'0 0.0
2015-Feb-22 05:32N 51°15' E 004°22'0 0.0
2015-Feb-22 04:32N 51°15' E 004°22'0 0.0
2015-Feb-22 03:32N 51°15' E 004°22'0 0.0
2015-Feb-22 02:32N 51°15' E 004°22'0 0.3
2015-Feb-22 01:33N 51°16' E 004°21'6 5.8
2015-Feb-22 00:33N 51°21' E 004°17'0 0.0
2015-Feb-21 23:33N 51°21' E 004°17'5 4.9
2015-Feb-21 22:34N 51°24' E 004°11'8 7.7
2015-Feb-21 21:33N 51°26' E 003°59'9 8.8
2015-Feb-21 20:33N 51°21' E 003°48'8 8.3
2015-Feb-21 19:34N 51°26' E 003°38'8 7.7
2015-Feb-21 18:33N 51°30' E 003°27'1010.1
2015-Feb-21 17:33N 51°39' E 003°19'11 9.1
2015-Feb-21 16:22N 51°50' E 003°17'  

Dump ship's entire track history